Main page
METAR-TAF:

METAR-TAF

Airports :

Munich Airport

Munich, Germany

latitude: 48-21N, longitude: 011-47E, elevation: 453 m

Current weather observation

The report was made 13 minutes ago, at 23:20 UTC
Wind 2 kt from the West/Southwest
Temperature -5°C
Humidity 93%
Pressure 1024 hPa
Visibility 10 km or more
no clouds below 1500 m and no cumulonimbus

METAR: EDDM 302320Z 24002KT CAVOK M05/M06 Q1024 NOSIG

Time: 01:33 (23:33 UTC)

Forecast

The report was made 6 hours and 33 minutes ago, at 17:00 UTC
Forecast valid from 30 at 18 UTC to 31 at 24 UTC
Wind 2 kt from variable directions
Visibility 10 km or more
no clouds below 1500 m and no cumulonimbus
Becoming
from 31 at 06 UTC to 31 at 08 UTC
Wind 7 kt from the Northeast

TAF: EDDM 301700Z 3018/3124 VRB02KT CAVOK BECMG 3106/3108 05007KT

Weather observations and forecasts of more than 4000 airports (METAR and TAF reports).

The available stations are represented by yellow and red dots on the map.

Hover mouse over dot to see the name of the station.

Then click to see weather observations and forecasts.

To change the map : click on the green buttons with a black cross to zoom in, on the green button with a dash to zoom out, or on the green arrows for adjacent maps.


METAR-TAF: